sensor_id;sensor_type;location;lat;lon;timestamp;P1;durP1;ratioP1;P2;durP2;ratioP2
53293;SDS011;39181;53.440;5.644;2023-04-03T00:01:32;5.22;;;0.93;;
53293;SDS011;39181;53.440;5.644;2023-04-03T00:03:58;3.55;;;0.90;;
53293;SDS011;39181;53.440;5.644;2023-04-03T00:06:24;5.28;;;0.88;;
53293;SDS011;39181;53.440;5.644;2023-04-03T00:08:50;1.17;;;0.75;;
53293;SDS011;39181;53.440;5.644;2023-04-03T00:11:16;4.72;;;1.50;;
53293;SDS011;39181;53.440;5.644;2023-04-03T00:13:42;4.00;;;1.05;;
53293;SDS011;39181;53.440;5.644;2023-04-03T00:16:09;2.45;;;0.70;;
53293;SDS011;39181;53.440;5.644;2023-04-03T00:18:35;1.77;;;0.70;;
53293;SDS011;39181;53.440;5.644;2023-04-03T00:21:02;3.78;;;0.80;;
53293;SDS011;39181;53.440;5.644;2023-04-03T00:23:27;4.35;;;1.17;;
53293;SDS011;39181;53.440;5.644;2023-04-03T00:25:53;2.47;;;1.08;;
53293;SDS011;39181;53.440;5.644;2023-04-03T00:28:20;7.80;;;1.00;;
53293;SDS011;39181;53.440;5.644;2023-04-03T00:30:46;3.15;;;1.60;;
53293;SDS011;39181;53.440;5.644;2023-04-03T00:33:13;1.42;;;0.70;;
53293;SDS011;39181;53.440;5.644;2023-04-03T00:35:39;2.28;;;0.77;;
53293;SDS011;39181;53.440;5.644;2023-04-03T00:38:05;1.20;;;0.73;;
53293;SDS011;39181;53.440;5.644;2023-04-03T00:40:34;1.15;;;0.60;;
53293;SDS011;39181;53.440;5.644;2023-04-03T00:43:11;3.55;;;0.80;;
53293;SDS011;39181;53.440;5.644;2023-04-03T00:45:40;4.05;;;0.60;;
53293;SDS011;39181;53.440;5.644;2023-04-03T00:48:17;3.95;;;0.60;;
53293;SDS011;39181;53.440;5.644;2023-04-03T00:50:46;4.30;;;0.80;;
53293;SDS011;39181;53.440;5.644;2023-04-03T00:53:14;3.83;;;1.08;;
53293;SDS011;39181;53.440;5.644;2023-04-03T00:55:44;2.53;;;0.43;;
53293;SDS011;39181;53.440;5.644;2023-04-03T00:58:12;2.83;;;0.77;;
53293;SDS011;39181;53.440;5.644;2023-04-03T01:00:40;0.90;;;0.50;;
53293;SDS011;39181;53.440;5.644;2023-04-03T01:03:10;3.42;;;0.70;;
53293;SDS011;39181;53.440;5.644;2023-04-03T01:05:36;3.58;;;0.70;;
53293;SDS011;39181;53.440;5.644;2023-04-03T01:08:02;1.63;;;0.73;;
53293;SDS011;39181;53.440;5.644;2023-04-03T01:10:27;1.27;;;0.70;;
53293;SDS011;39181;53.440;5.644;2023-04-03T01:12:53;1.13;;;0.40;;
53293;SDS011;39181;53.440;5.644;2023-04-03T01:15:22;1.00;;;0.63;;
53293;SDS011;39181;53.440;5.644;2023-04-03T01:17:57;2.63;;;0.60;;
53293;SDS011;39181;53.440;5.644;2023-04-03T01:25:35;2.65;;;0.60;;
53293;SDS011;39181;53.440;5.644;2023-04-03T01:28:10;1.45;;;0.70;;
53293;SDS011;39181;53.440;5.644;2023-04-03T01:33:33;3.28;;;0.90;;
53293;SDS011;39181;53.440;5.644;2023-04-03T01:35:59;2.60;;;0.90;;
53293;SDS011;39181;53.440;5.644;2023-04-03T01:38:25;7.47;;;0.90;;
53293;SDS011;39181;53.440;5.644;2023-04-03T01:40:50;1.83;;;0.70;;
53293;SDS011;39181;53.440;5.644;2023-04-03T01:43:16;4.40;;;1.30;;
53293;SDS011;39181;53.440;5.644;2023-04-03T01:45:42;3.20;;;1.02;;
53293;SDS011;39181;53.440;5.644;2023-04-03T01:48:07;2.38;;;0.63;;
53293;SDS011;39181;53.440;5.644;2023-04-03T01:50:33;5.53;;;1.08;;
53293;SDS011;39181;53.440;5.644;2023-04-03T01:52:59;1.38;;;0.70;;
53293;SDS011;39181;53.440;5.644;2023-04-03T01:55:24;1.98;;;0.77;;
53293;SDS011;39181;53.440;5.644;2023-04-03T01:57:50;2.65;;;1.05;;
53293;SDS011;39181;53.440;5.644;2023-04-03T02:00:16;3.53;;;0.90;;
53293;SDS011;39181;53.440;5.644;2023-04-03T02:02:41;1.92;;;0.68;;
53293;SDS011;39181;53.440;5.644;2023-04-03T02:05:07;2.30;;;0.80;;
53293;SDS011;39181;53.440;5.644;2023-04-03T02:07:33;3.72;;;0.82;;
53293;SDS011;39181;53.440;5.644;2023-04-03T02:09:59;3.75;;;1.10;;
53293;SDS011;39181;53.440;5.644;2023-04-03T02:12:24;3.88;;;1.10;;
53293;SDS011;39181;53.440;5.644;2023-04-03T02:14:50;2.13;;;0.73;;
53293;SDS011;39181;53.440;5.644;2023-04-03T02:17:15;6.22;;;1.42;;
53293;SDS011;39181;53.440;5.644;2023-04-03T02:19:41;2.88;;;0.80;;
53293;SDS011;39181;53.440;5.644;2023-04-03T02:22:07;3.15;;;0.93;;
53293;SDS011;39181;53.440;5.644;2023-04-03T02:24:32;3.92;;;0.80;;
53293;SDS011;39181;53.440;5.644;2023-04-03T02:26:58;2.90;;;0.82;;
53293;SDS011;39181;53.440;5.644;2023-04-03T02:29:24;4.55;;;0.98;;
53293;SDS011;39181;53.440;5.644;2023-04-03T02:31:50;4.05;;;0.80;;
53293;SDS011;39181;53.440;5.644;2023-04-03T02:34:16;6.72;;;0.98;;
53293;SDS011;39181;53.440;5.644;2023-04-03T02:36:42;5.05;;;1.60;;
53293;SDS011;39181;53.440;5.644;2023-04-03T02:39:07;2.95;;;1.00;;
53293;SDS011;39181;53.440;5.644;2023-04-03T02:41:33;7.13;;;0.98;;
53293;SDS011;39181;53.440;5.644;2023-04-03T02:44:02;7.82;;;0.82;;
53293;SDS011;39181;53.440;5.644;2023-04-03T02:46:29;3.13;;;0.95;;
53293;SDS011;39181;53.440;5.644;2023-04-03T02:48:55;2.47;;;0.90;;
53293;SDS011;39181;53.440;5.644;2023-04-03T02:51:21;3.50;;;1.08;;
53293;SDS011;39181;53.440;5.644;2023-04-03T02:53:47;3.38;;;1.38;;
53293;SDS011;39181;53.440;5.644;2023-04-03T02:56:13;4.72;;;0.80;;
53293;SDS011;39181;53.440;5.644;2023-04-03T02:58:40;2.88;;;0.85;;
53293;SDS011;39181;53.440;5.644;2023-04-03T03:01:05;6.55;;;0.95;;
53293;SDS011;39181;53.440;5.644;2023-04-03T03:03:31;3.80;;;1.10;;
53293;SDS011;39181;53.440;5.644;2023-04-03T03:08:33;7.05;;;1.80;;
53293;SDS011;39181;53.440;5.644;2023-04-03T03:10:59;3.65;;;1.08;;
53293;SDS011;39181;53.440;5.644;2023-04-03T03:13:25;4.60;;;1.02;;
53293;SDS011;39181;53.440;5.644;2023-04-03T03:15:51;5.05;;;1.40;;
53293;SDS011;39181;53.440;5.644;2023-04-03T03:18:17;4.88;;;1.27;;
53293;SDS011;39181;53.440;5.644;2023-04-03T03:20:42;3.22;;;1.15;;
53293;SDS011;39181;53.440;5.644;2023-04-03T03:23:08;2.75;;;1.42;;
53293;SDS011;39181;53.440;5.644;2023-04-03T03:25:37;4.10;;;1.50;;
53293;SDS011;39181;53.440;5.644;2023-04-03T03:28:05;6.22;;;1.08;;
53293;SDS011;39181;53.440;5.644;2023-04-03T03:30:32;4.45;;;1.45;;
53293;SDS011;39181;53.440;5.644;2023-04-03T03:32:57;5.68;;;1.27;;
53293;SDS011;39181;53.440;5.644;2023-04-03T03:35:23;4.63;;;1.38;;
53293;SDS011;39181;53.440;5.644;2023-04-03T03:37:49;5.93;;;1.50;;
53293;SDS011;39181;53.440;5.644;2023-04-03T03:40:15;5.90;;;1.60;;
53293;SDS011;39181;53.440;5.644;2023-04-03T03:42:40;2.78;;;1.35;;
53293;SDS011;39181;53.440;5.644;2023-04-03T03:45:06;9.07;;;1.60;;
53293;SDS011;39181;53.440;5.644;2023-04-03T03:47:32;2.85;;;1.30;;
53293;SDS011;39181;53.440;5.644;2023-04-03T03:49:58;3.45;;;1.50;;
53293;SDS011;39181;53.440;5.644;2023-04-03T03:52:24;4.45;;;1.60;;
53293;SDS011;39181;53.440;5.644;2023-04-03T03:54:49;7.15;;;1.23;;
53293;SDS011;39181;53.440;5.644;2023-04-03T03:57:15;5.68;;;1.45;;
53293;SDS011;39181;53.440;5.644;2023-04-03T03:59:41;7.03;;;1.65;;
53293;SDS011;39181;53.440;5.644;2023-04-03T04:02:07;6.40;;;1.20;;
53293;SDS011;39181;53.440;5.644;2023-04-03T04:04:32;6.50;;;1.63;;
53293;SDS011;39181;53.440;5.644;2023-04-03T04:06:58;5.32;;;1.15;;
53293;SDS011;39181;53.440;5.644;2023-04-03T04:09:25;6.30;;;1.38;;
53293;SDS011;39181;53.440;5.644;2023-04-03T04:11:51;4.80;;;1.40;;
53293;SDS011;39181;53.440;5.644;2023-04-03T04:14:17;5.97;;;1.40;;
53293;SDS011;39181;53.440;5.644;2023-04-03T04:16:45;8.82;;;2.00;;
53293;SDS011;39181;53.440;5.644;2023-04-03T04:19:11;8.60;;;1.40;;
53293;SDS011;39181;53.440;5.644;2023-04-03T04:21:37;3.78;;;1.58;;
53293;SDS011;39181;53.440;5.644;2023-04-03T04:24:02;2.97;;;1.20;;
53293;SDS011;39181;53.440;5.644;2023-04-03T04:26:28;7.55;;;1.25;;
53293;SDS011;39181;53.440;5.644;2023-04-03T04:28:53;2.80;;;1.15;;
53293;SDS011;39181;53.440;5.644;2023-04-03T04:31:19;4.95;;;1.90;;
53293;SDS011;39181;53.440;5.644;2023-04-03T04:33:45;7.63;;;1.30;;
53293;SDS011;39181;53.440;5.644;2023-04-03T04:36:10;4.88;;;1.30;;
53293;SDS011;39181;53.440;5.644;2023-04-03T04:38:36;5.97;;;1.63;;
53293;SDS011;39181;53.440;5.644;2023-04-03T04:41:01;8.27;;;1.73;;
53293;SDS011;39181;53.440;5.644;2023-04-03T04:43:27;6.15;;;1.52;;
53293;SDS011;39181;53.440;5.644;2023-04-03T04:46:03;7.10;;;1.95;;
53293;SDS011;39181;53.440;5.644;2023-04-03T04:48:34;6.70;;;2.00;;
53293;SDS011;39181;53.440;5.644;2023-04-03T04:51:00;6.47;;;2.08;;
53293;SDS011;39181;53.440;5.644;2023-04-03T04:53:26;11.70;;;1.65;;
53293;SDS011;39181;53.440;5.644;2023-04-03T04:55:52;5.07;;;1.75;;
53293;SDS011;39181;53.440;5.644;2023-04-03T04:58:17;5.65;;;1.48;;
53293;SDS011;39181;53.440;5.644;2023-04-03T05:00:43;8.50;;;1.80;;
53293;SDS011;39181;53.440;5.644;2023-04-03T05:03:09;4.50;;;1.73;;
53293;SDS011;39181;53.440;5.644;2023-04-03T05:05:35;6.40;;;1.80;;
53293;SDS011;39181;53.440;5.644;2023-04-03T05:08:01;7.80;;;1.77;;
53293;SDS011;39181;53.440;5.644;2023-04-03T05:10:28;6.78;;;1.73;;
53293;SDS011;39181;53.440;5.644;2023-04-03T05:12:53;10.57;;;1.60;;
53293;SDS011;39181;53.440;5.644;2023-04-03T05:15:19;7.32;;;1.92;;
53293;SDS011;39181;53.440;5.644;2023-04-03T05:17:45;5.30;;;1.60;;
53293;SDS011;39181;53.440;5.644;2023-04-03T05:20:10;6.20;;;1.60;;
53293;SDS011;39181;53.440;5.644;2023-04-03T05:22:36;7.40;;;2.08;;
53293;SDS011;39181;53.440;5.644;2023-04-03T05:25:02;7.22;;;1.95;;
53293;SDS011;39181;53.440;5.644;2023-04-03T05:27:28;8.10;;;2.03;;
53293;SDS011;39181;53.440;5.644;2023-04-03T05:29:54;7.22;;;1.55;;
53293;SDS011;39181;53.440;5.644;2023-04-03T05:32:20;2.83;;;1.58;;
53293;SDS011;39181;53.440;5.644;2023-04-03T05:34:46;9.15;;;1.77;;
53293;SDS011;39181;53.440;5.644;2023-04-03T05:37:12;6.40;;;2.28;;
53293;SDS011;39181;53.440;5.644;2023-04-03T05:39:38;6.63;;;1.65;;
53293;SDS011;39181;53.440;5.644;2023-04-03T05:42:05;3.78;;;1.27;;
53293;SDS011;39181;53.440;5.644;2023-04-03T05:44:31;6.65;;;1.58;;
53293;SDS011;39181;53.440;5.644;2023-04-03T05:46:57;3.53;;;1.33;;
53293;SDS011;39181;53.440;5.644;2023-04-03T05:49:23;3.58;;;1.20;;
53293;SDS011;39181;53.440;5.644;2023-04-03T05:51:49;6.68;;;1.52;;
53293;SDS011;39181;53.440;5.644;2023-04-03T05:54:18;6.70;;;2.03;;
53293;SDS011;39181;53.440;5.644;2023-04-03T05:56:52;4.97;;;1.30;;
53293;SDS011;39181;53.440;5.644;2023-04-03T05:59:18;5.75;;;1.52;;
53293;SDS011;39181;53.440;5.644;2023-04-03T06:01:45;6.63;;;1.30;;
53293;SDS011;39181;53.440;5.644;2023-04-03T06:04:12;5.50;;;1.40;;
53293;SDS011;39181;53.440;5.644;2023-04-03T06:09:22;6.28;;;1.45;;
53293;SDS011;39181;53.440;5.644;2023-04-03T06:11:50;6.95;;;1.50;;
53293;SDS011;39181;53.440;5.644;2023-04-03T06:14:16;3.90;;;1.50;;
53293;SDS011;39181;53.440;5.644;2023-04-03T06:16:42;5.57;;;1.13;;
53293;SDS011;39181;53.440;5.644;2023-04-03T06:19:08;5.85;;;2.00;;
53293;SDS011;39181;53.440;5.644;2023-04-03T06:21:35;6.35;;;1.50;;
53293;SDS011;39181;53.440;5.644;2023-04-03T06:24:01;4.63;;;1.42;;
53293;SDS011;39181;53.440;5.644;2023-04-03T06:26:27;3.97;;;1.50;;
53293;SDS011;39181;53.440;5.644;2023-04-03T06:28:53;7.60;;;1.98;;
53293;SDS011;39181;53.440;5.644;2023-04-03T06:31:19;2.90;;;1.20;;
53293;SDS011;39181;53.440;5.644;2023-04-03T06:33:45;9.43;;;1.85;;
53293;SDS011;39181;53.440;5.644;2023-04-03T06:36:10;9.20;;;2.03;;
53293;SDS011;39181;53.440;5.644;2023-04-03T06:38:37;12.23;;;2.25;;
53293;SDS011;39181;53.440;5.644;2023-04-03T06:41:03;5.18;;;1.73;;
53293;SDS011;39181;53.440;5.644;2023-04-03T06:43:29;8.27;;;1.38;;
53293;SDS011;39181;53.440;5.644;2023-04-03T06:45:56;7.22;;;1.52;;
53293;SDS011;39181;53.440;5.644;2023-04-03T06:48:22;7.18;;;1.63;;
53293;SDS011;39181;53.440;5.644;2023-04-03T06:50:48;5.40;;;1.45;;
53293;SDS011;39181;53.440;5.644;2023-04-03T06:53:13;7.57;;;1.30;;
53293;SDS011;39181;53.440;5.644;2023-04-03T06:55:39;6.65;;;1.30;;
53293;SDS011;39181;53.440;5.644;2023-04-03T06:58:06;7.13;;;2.38;;
53293;SDS011;39181;53.440;5.644;2023-04-03T07:00:32;4.47;;;1.67;;
53293;SDS011;39181;53.440;5.644;2023-04-03T07:02:58;4.50;;;1.98;;
53293;SDS011;39181;53.440;5.644;2023-04-03T07:05:24;6.40;;;1.70;;
53293;SDS011;39181;53.440;5.644;2023-04-03T07:07:51;6.40;;;1.30;;
53293;SDS011;39181;53.440;5.644;2023-04-03T07:10:17;6.55;;;1.42;;
53293;SDS011;39181;53.440;5.644;2023-04-03T07:12:42;4.38;;;1.17;;
53293;SDS011;39181;53.440;5.644;2023-04-03T07:15:08;6.28;;;1.25;;
53293;SDS011;39181;53.440;5.644;2023-04-03T07:17:34;5.43;;;2.33;;
53293;SDS011;39181;53.440;5.644;2023-04-03T07:20:01;7.28;;;1.90;;
53293;SDS011;39181;53.440;5.644;2023-04-03T07:22:27;4.82;;;1.27;;
53293;SDS011;39181;53.440;5.644;2023-04-03T07:24:52;6.90;;;1.63;;
53293;SDS011;39181;53.440;5.644;2023-04-03T07:27:18;4.10;;;1.63;;
53293;SDS011;39181;53.440;5.644;2023-04-03T07:29:43;9.23;;;1.20;;
53293;SDS011;39181;53.440;5.644;2023-04-03T07:32:09;7.75;;;1.65;;
53293;SDS011;39181;53.440;5.644;2023-04-03T07:34:35;7.05;;;1.55;;
53293;SDS011;39181;53.440;5.644;2023-04-03T07:37:01;4.18;;;1.52;;
53293;SDS011;39181;53.440;5.644;2023-04-03T07:39:27;8.98;;;1.60;;
53293;SDS011;39181;53.440;5.644;2023-04-03T07:41:54;3.33;;;1.35;;
53293;SDS011;39181;53.440;5.644;2023-04-03T07:44:22;10.48;;;2.55;;
53293;SDS011;39181;53.440;5.644;2023-04-03T07:46:48;5.85;;;2.40;;
53293;SDS011;39181;53.440;5.644;2023-04-03T07:49:15;7.68;;;1.80;;
53293;SDS011;39181;53.440;5.644;2023-04-03T07:51:42;5.03;;;1.63;;
53293;SDS011;39181;53.440;5.644;2023-04-03T07:54:09;6.03;;;1.38;;
53293;SDS011;39181;53.440;5.644;2023-04-03T07:56:34;6.68;;;1.55;;
53293;SDS011;39181;53.440;5.644;2023-04-03T07:59:00;6.65;;;1.98;;
53293;SDS011;39181;53.440;5.644;2023-04-03T08:01:25;5.47;;;1.50;;
53293;SDS011;39181;53.440;5.644;2023-04-03T08:03:51;7.15;;;1.42;;
53293;SDS011;39181;53.440;5.644;2023-04-03T08:06:17;7.60;;;1.92;;
53293;SDS011;39181;53.440;5.644;2023-04-03T08:08:43;3.47;;;1.00;;
53293;SDS011;39181;53.440;5.644;2023-04-03T08:11:09;5.72;;;1.55;;
53293;SDS011;39181;53.440;5.644;2023-04-03T08:13:35;3.83;;;1.40;;
53293;SDS011;39181;53.440;5.644;2023-04-03T08:16:11;5.88;;;1.40;;
53293;SDS011;39181;53.440;5.644;2023-04-03T08:18:40;4.93;;;1.15;;
53293;SDS011;39181;53.440;5.644;2023-04-03T08:21:07;4.93;;;1.02;;
53293;SDS011;39181;53.440;5.644;2023-04-03T08:23:34;5.57;;;1.40;;
53293;SDS011;39181;53.440;5.644;2023-04-03T08:26:04;8.63;;;1.48;;
53293;SDS011;39181;53.440;5.644;2023-04-03T08:28:40;9.88;;;1.88;;
53293;SDS011;39181;53.440;5.644;2023-04-03T08:31:06;3.13;;;1.50;;
53293;SDS011;39181;53.440;5.644;2023-04-03T08:33:37;5.00;;;1.23;;
53293;SDS011;39181;53.440;5.644;2023-04-03T08:36:04;7.75;;;1.52;;
53293;SDS011;39181;53.440;5.644;2023-04-03T08:38:30;4.68;;;1.17;;
53293;SDS011;39181;53.440;5.644;2023-04-03T08:41:01;7.65;;;1.30;;
53293;SDS011;39181;53.440;5.644;2023-04-03T08:43:43;3.53;;;1.30;;
53293;SDS011;39181;53.440;5.644;2023-04-03T08:46:22;7.18;;;1.33;;
53293;SDS011;39181;53.440;5.644;2023-04-03T08:48:56;8.75;;;2.08;;
53293;SDS011;39181;53.440;5.644;2023-04-03T08:51:23;2.20;;;1.00;;
53293;SDS011;39181;53.440;5.644;2023-04-03T08:53:55;2.58;;;1.10;;
53293;SDS011;39181;53.440;5.644;2023-04-03T08:56:27;4.20;;;1.15;;
53293;SDS011;39181;53.440;5.644;2023-04-03T08:58:55;3.50;;;1.10;;
53293;SDS011;39181;53.440;5.644;2023-04-03T09:01:36;3.43;;;1.23;;
53293;SDS011;39181;53.440;5.644;2023-04-03T09:04:09;8.13;;;1.30;;
53293;SDS011;39181;53.440;5.644;2023-04-03T09:06:41;3.58;;;1.00;;
53293;SDS011;39181;53.440;5.644;2023-04-03T09:23:08;4.22;;;1.02;;
53293;SDS011;39181;53.440;5.644;2023-04-03T09:25:42;4.55;;;1.27;;
53293;SDS011;39181;53.440;5.644;2023-04-03T09:28:09;2.75;;;1.30;;
53293;SDS011;39181;53.440;5.644;2023-04-03T09:30:35;4.63;;;1.02;;
53293;SDS011;39181;53.440;5.644;2023-04-03T09:33:02;2.28;;;1.10;;
53293;SDS011;39181;53.440;5.644;2023-04-03T09:35:33;4.57;;;1.20;;
53293;SDS011;39181;53.440;5.644;2023-04-03T09:40:41;4.55;;;1.25;;
53293;SDS011;39181;53.440;5.644;2023-04-03T09:49:00;5.28;;;1.58;;
53293;SDS011;39181;53.440;5.644;2023-04-03T09:51:28;3.78;;;1.83;;
53293;SDS011;39181;53.440;5.644;2023-04-03T09:53:54;3.90;;;1.45;;
53293;SDS011;39181;53.440;5.644;2023-04-03T09:56:27;4.05;;;1.48;;
53293;SDS011;39181;53.440;5.644;2023-04-03T10:01:33;3.17;;;1.02;;
53293;SDS011;39181;53.440;5.644;2023-04-03T10:06:47;5.13;;;1.30;;
53293;SDS011;39181;53.440;5.644;2023-04-03T10:09:16;3.17;;;1.17;;
53293;SDS011;39181;53.440;5.644;2023-04-03T10:12:07;4.68;;;1.40;;
53293;SDS011;39181;53.440;5.644;2023-04-03T10:14:40;4.63;;;1.15;;
53293;SDS011;39181;53.440;5.644;2023-04-03T10:17:18;2.15;;;0.80;;
53293;SDS011;39181;53.440;5.644;2023-04-03T10:25:32;2.15;;;0.88;;
53293;SDS011;39181;53.440;5.644;2023-04-03T10:28:25;2.83;;;0.90;;
53293;SDS011;39181;53.440;5.644;2023-04-03T10:33:46;3.13;;;1.05;;
53293;SDS011;39181;53.440;5.644;2023-04-03T10:39:26;3.22;;;0.90;;
53293;SDS011;39181;53.440;5.644;2023-04-03T10:50:26;4.13;;;0.97;;
53293;SDS011;39181;53.440;5.644;2023-04-03T10:53:08;3.63;;;0.70;;
53293;SDS011;39181;53.440;5.644;2023-04-03T10:55:56;2.17;;;0.50;;
53293;SDS011;39181;53.440;5.644;2023-04-03T10:58:25;1.05;;;0.60;;
53293;SDS011;39181;53.440;5.644;2023-04-03T11:00:53;2.70;;;0.55;;
53293;SDS011;39181;53.440;5.644;2023-04-03T11:06:12;1.92;;;0.60;;
53293;SDS011;39181;53.440;5.644;2023-04-03T11:11:33;1.02;;;0.50;;
53293;SDS011;39181;53.440;5.644;2023-04-03T11:16:27;2.72;;;0.50;;
53293;SDS011;39181;53.440;5.644;2023-04-03T11:19:10;2.42;;;0.70;;
53293;SDS011;39181;53.440;5.644;2023-04-03T11:24:29;1.65;;;0.73;;
53293;SDS011;39181;53.440;5.644;2023-04-03T11:26:58;1.55;;;0.50;;
53293;SDS011;39181;53.440;5.644;2023-04-03T11:29:32;4.45;;;0.73;;
53293;SDS011;39181;53.440;5.644;2023-04-03T11:34:56;3.80;;;0.77;;
53293;SDS011;39181;53.440;5.644;2023-04-03T11:37:42;3.97;;;0.55;;
53293;SDS011;39181;53.440;5.644;2023-04-03T11:45:31;1.30;;;0.47;;
53293;SDS011;39181;53.440;5.644;2023-04-03T11:50:43;1.48;;;0.50;;
53293;SDS011;39181;53.440;5.644;2023-04-03T11:55:43;2.72;;;0.50;;
53293;SDS011;39181;53.440;5.644;2023-04-03T11:58:17;3.20;;;0.50;;
53293;SDS011;39181;53.440;5.644;2023-04-03T12:05:47;2.53;;;0.73;;
53293;SDS011;39181;53.440;5.644;2023-04-03T12:08:26;1.55;;;0.60;;
53293;SDS011;39181;53.440;5.644;2023-04-03T12:16:22;1.83;;;0.60;;
53293;SDS011;39181;53.440;5.644;2023-04-03T12:26:44;1.88;;;0.75;;
53293;SDS011;39181;53.440;5.644;2023-04-03T12:34:52;4.05;;;1.35;;
53293;SDS011;39181;53.440;5.644;2023-04-03T12:37:48;3.83;;;0.90;;
53293;SDS011;39181;53.440;5.644;2023-04-03T12:41:23;3.53;;;0.77;;
53293;SDS011;39181;53.440;5.644;2023-04-03T12:46:21;5.63;;;1.25;;
53293;SDS011;39181;53.440;5.644;2023-04-03T12:48:50;4.53;;;0.90;;
53293;SDS011;39181;53.440;5.644;2023-04-03T12:54:16;3.50;;;0.85;;
53293;SDS011;39181;53.440;5.644;2023-04-03T12:56:48;3.72;;;1.02;;
53293;SDS011;39181;53.440;5.644;2023-04-03T13:01:52;5.22;;;0.95;;
53293;SDS011;39181;53.440;5.644;2023-04-03T13:04:19;6.28;;;1.63;;
53293;SDS011;39181;53.440;5.644;2023-04-03T13:06:45;2.50;;;0.75;;
53293;SDS011;39181;53.440;5.644;2023-04-03T13:09:22;2.28;;;0.85;;
53293;SDS011;39181;53.440;5.644;2023-04-03T13:12:03;1.20;;;0.50;;
53293;SDS011;39181;53.440;5.644;2023-04-03T13:14:36;3.00;;;0.80;;
53293;SDS011;39181;53.440;5.644;2023-04-03T13:19:36;3.30;;;0.70;;
53293;SDS011;39181;53.440;5.644;2023-04-03T13:22:04;3.08;;;0.95;;
53293;SDS011;39181;53.440;5.644;2023-04-03T13:24:33;3.10;;;0.60;;
53293;SDS011;39181;53.440;5.644;2023-04-03T13:27:02;3.03;;;0.68;;
53293;SDS011;39181;53.440;5.644;2023-04-03T13:29:38;2.85;;;1.33;;
53293;SDS011;39181;53.440;5.644;2023-04-03T13:32:05;5.13;;;1.80;;
53293;SDS011;39181;53.440;5.644;2023-04-03T13:34:39;10.00;;;3.40;;
53293;SDS011;39181;53.440;5.644;2023-04-03T13:37:18;15.02;;;6.65;;
53293;SDS011;39181;53.440;5.644;2023-04-03T13:39:56;5.65;;;2.95;;
53293;SDS011;39181;53.440;5.644;2023-04-03T13:42:29;3.20;;;1.10;;
53293;SDS011;39181;53.440;5.644;2023-04-03T13:48:07;3.50;;;1.00;;
53293;SDS011;39181;53.440;5.644;2023-04-03T13:50:50;2.75;;;0.60;;
53293;SDS011;39181;53.440;5.644;2023-04-03T13:53:23;1.75;;;0.70;;
53293;SDS011;39181;53.440;5.644;2023-04-03T13:58:56;3.40;;;0.57;;
53293;SDS011;39181;53.440;5.644;2023-04-03T14:04:20;4.07;;;0.40;;
53293;SDS011;39181;53.440;5.644;2023-04-03T14:06:48;2.35;;;1.00;;
53293;SDS011;39181;53.440;5.644;2023-04-03T14:09:15;2.95;;;0.50;;
53293;SDS011;39181;53.440;5.644;2023-04-03T14:11:42;2.80;;;0.77;;
53293;SDS011;39181;53.440;5.644;2023-04-03T14:14:12;3.63;;;0.93;;
53293;SDS011;39181;53.440;5.644;2023-04-03T14:16:48;3.03;;;0.70;;
53293;SDS011;39181;53.440;5.644;2023-04-03T14:19:19;2.88;;;0.77;;
53293;SDS011;39181;53.440;5.644;2023-04-03T14:21:50;3.88;;;0.63;;
53293;SDS011;39181;53.440;5.644;2023-04-03T14:24:17;2.95;;;0.80;;
53293;SDS011;39181;53.440;5.644;2023-04-03T14:26:44;3.88;;;1.02;;
53293;SDS011;39181;53.440;5.644;2023-04-03T14:29:11;3.03;;;1.00;;
53293;SDS011;39181;53.440;5.644;2023-04-03T14:31:38;4.00;;;0.80;;
53293;SDS011;39181;53.440;5.644;2023-04-03T14:34:05;2.72;;;0.90;;
53293;SDS011;39181;53.440;5.644;2023-04-03T14:36:31;2.42;;;0.75;;
53293;SDS011;39181;53.440;5.644;2023-04-03T14:38:58;2.70;;;0.70;;
53293;SDS011;39181;53.440;5.644;2023-04-03T14:41:26;2.38;;;0.73;;
53293;SDS011;39181;53.440;5.644;2023-04-03T14:43:52;1.92;;;0.55;;
53293;SDS011;39181;53.440;5.644;2023-04-03T14:46:19;2.58;;;0.80;;
53293;SDS011;39181;53.440;5.644;2023-04-03T14:48:53;2.17;;;0.65;;
53293;SDS011;39181;53.440;5.644;2023-04-03T14:51:19;1.88;;;0.65;;
53293;SDS011;39181;53.440;5.644;2023-04-03T14:53:46;2.97;;;0.70;;
53293;SDS011;39181;53.440;5.644;2023-04-03T14:56:12;2.30;;;0.50;;
53293;SDS011;39181;53.440;5.644;2023-04-03T14:58:48;1.73;;;0.50;;
53293;SDS011;39181;53.440;5.644;2023-04-03T15:01:17;1.95;;;0.50;;
53293;SDS011;39181;53.440;5.644;2023-04-03T15:03:43;2.60;;;0.65;;
53293;SDS011;39181;53.440;5.644;2023-04-03T15:06:10;3.42;;;0.70;;
53293;SDS011;39181;53.440;5.644;2023-04-03T15:08:37;1.67;;;0.60;;
53293;SDS011;39181;53.440;5.644;2023-04-03T15:11:03;2.33;;;0.70;;
53293;SDS011;39181;53.440;5.644;2023-04-03T15:13:29;2.40;;;0.50;;
53293;SDS011;39181;53.440;5.644;2023-04-03T15:15:54;2.30;;;0.57;;
53293;SDS011;39181;53.440;5.644;2023-04-03T15:18:27;1.63;;;0.50;;
53293;SDS011;39181;53.440;5.644;2023-04-03T15:20:55;2.15;;;0.50;;
53293;SDS011;39181;53.440;5.644;2023-04-03T15:23:21;0.95;;;0.40;;
53293;SDS011;39181;53.440;5.644;2023-04-03T15:25:51;2.15;;;0.38;;
53293;SDS011;39181;53.440;5.644;2023-04-03T15:28:28;1.67;;;0.43;;
53293;SDS011;39181;53.440;5.644;2023-04-03T15:30:57;1.48;;;0.40;;
53293;SDS011;39181;53.440;5.644;2023-04-03T15:33:23;1.73;;;0.40;;
53293;SDS011;39181;53.440;5.644;2023-04-03T15:35:49;1.20;;;0.50;;
53293;SDS011;39181;53.440;5.644;2023-04-03T15:38:15;0.75;;;0.20;;
53293;SDS011;39181;53.440;5.644;2023-04-03T15:40:40;3.25;;;0.40;;
53293;SDS011;39181;53.440;5.644;2023-04-03T15:43:07;2.47;;;0.77;;
53293;SDS011;39181;53.440;5.644;2023-04-03T15:45:33;2.50;;;0.85;;
53293;SDS011;39181;53.440;5.644;2023-04-03T15:48:01;3.15;;;0.45;;
53293;SDS011;39181;53.440;5.644;2023-04-03T15:50:28;2.88;;;0.47;;
53293;SDS011;39181;53.440;5.644;2023-04-03T15:52:54;2.60;;;0.40;;
53293;SDS011;39181;53.440;5.644;2023-04-03T15:55:26;3.03;;;0.88;;
53293;SDS011;39181;53.440;5.644;2023-04-03T15:57:52;2.53;;;0.55;;
53293;SDS011;39181;53.440;5.644;2023-04-03T16:00:19;1.80;;;0.30;;
53293;SDS011;39181;53.440;5.644;2023-04-03T16:02:45;2.35;;;0.30;;
53293;SDS011;39181;53.440;5.644;2023-04-03T16:05:12;1.02;;;0.50;;
53293;SDS011;39181;53.440;5.644;2023-04-03T16:07:40;1.17;;;0.25;;
53293;SDS011;39181;53.440;5.644;2023-04-03T16:10:09;1.05;;;0.40;;
53293;SDS011;39181;53.440;5.644;2023-04-03T16:12:38;1.83;;;0.38;;
53293;SDS011;39181;53.440;5.644;2023-04-03T16:15:04;3.25;;;0.60;;
53293;SDS011;39181;53.440;5.644;2023-04-03T16:17:31;1.02;;;0.50;;
53293;SDS011;39181;53.440;5.644;2023-04-03T16:19:57;2.08;;;0.60;;
53293;SDS011;39181;53.440;5.644;2023-04-03T16:22:24;2.63;;;0.80;;
53293;SDS011;39181;53.440;5.644;2023-04-03T16:24:52;5.25;;;0.90;;
53293;SDS011;39181;53.440;5.644;2023-04-03T16:27:18;4.03;;;0.55;;
53293;SDS011;39181;53.440;5.644;2023-04-03T16:29:43;4.35;;;0.80;;
53293;SDS011;39181;53.440;5.644;2023-04-03T16:32:09;0.88;;;0.35;;
53293;SDS011;39181;53.440;5.644;2023-04-03T16:34:37;5.32;;;1.17;;
53293;SDS011;39181;53.440;5.644;2023-04-03T16:37:03;2.10;;;0.40;;
53293;SDS011;39181;53.440;5.644;2023-04-03T16:39:28;1.50;;;0.40;;
53293;SDS011;39181;53.440;5.644;2023-04-03T16:41:54;5.25;;;0.93;;
53293;SDS011;39181;53.440;5.644;2023-04-03T16:44:20;1.77;;;0.40;;
53293;SDS011;39181;53.440;5.644;2023-04-03T16:46:46;3.72;;;0.80;;
53293;SDS011;39181;53.440;5.644;2023-04-03T16:49:11;3.33;;;0.60;;
53293;SDS011;39181;53.440;5.644;2023-04-03T16:51:37;3.78;;;0.57;;
53293;SDS011;39181;53.440;5.644;2023-04-03T16:54:03;5.15;;;0.77;;
53293;SDS011;39181;53.440;5.644;2023-04-03T16:56:28;2.35;;;0.70;;
53293;SDS011;39181;53.440;5.644;2023-04-03T16:58:54;2.58;;;0.68;;
53293;SDS011;39181;53.440;5.644;2023-04-03T17:01:21;3.45;;;0.50;;
53293;SDS011;39181;53.440;5.644;2023-04-03T17:03:47;4.43;;;0.70;;